createdAt,value
2023-01-26T01:26:10.853Z,102325.56
2023-01-26T01:28:39.021Z,102330.16
2023-01-26T01:31:07.648Z,102334.03
2023-01-26T01:33:36.607Z,102341.19
2023-01-26T01:36:06.194Z,102333.19
2023-01-26T01:38:34.040Z,102345.84
2023-01-26T01:41:01.624Z,102347.56
2023-01-26T01:43:29.364Z,102348.28
2023-01-26T01:45:57.415Z,102346.22
2023-01-26T01:48:26.853Z,102339.44
2023-01-26T01:50:56.781Z,102341.88
2023-01-26T01:53:28.213Z,102335.00
2023-01-26T01:56:01.315Z,102344.00
2023-01-26T01:58:29.729Z,102341.56
2023-01-26T02:00:59.253Z,102339.94
2023-01-26T02:03:27.131Z,102343.75
2023-01-26T02:05:56.191Z,102337.72
2023-01-26T02:08:27.607Z,102352.78
2023-01-26T02:10:57.163Z,102349.28
2023-01-26T02:13:25.296Z,102345.88
2023-01-26T02:15:53.045Z,102345.94
2023-01-26T02:18:21.665Z,102348.53
2023-01-26T02:20:54.694Z,102351.13
2023-01-26T02:23:44.094Z,102350.22
2023-01-26T02:26:16.616Z,102348.47
2023-01-26T02:28:46.462Z,102344.16
2023-01-26T02:31:14.686Z,102347.66
2023-01-26T02:33:43.136Z,102348.47
2023-01-26T02:36:18.506Z,102343.09
2023-01-26T02:39:09.333Z,102346.47
2023-01-26T02:41:55.131Z,102341.03
2023-01-26T02:44:24.919Z,102344.50
2023-01-26T02:46:53.278Z,102341.91
2023-01-26T02:49:40.003Z,102344.56
2023-01-26T02:52:08.198Z,102335.66
2023-01-26T02:54:54.900Z,102345.25
2023-01-26T02:57:23.366Z,102340.47
2023-01-26T02:59:52.161Z,102342.16
2023-01-26T03:02:19.864Z,102336.97
2023-01-26T03:04:47.741Z,102327.91
2023-01-26T03:07:15.620Z,102324.38
2023-01-26T03:09:43.226Z,102331.44
2023-01-26T03:12:10.827Z,102326.38
2023-01-26T03:14:38.415Z,102320.81
2023-01-26T03:17:06.222Z,102324.59
2023-01-26T03:19:52.308Z,102336.03
2023-01-26T03:22:38.348Z,102330.34
2023-01-26T03:25:24.920Z,102322.66
2023-01-26T03:27:54.524Z,102325.53
2023-01-26T03:30:22.207Z,102316.66
2023-01-26T03:32:50.807Z,102316.31
2023-01-26T03:35:22.863Z,102314.25
2023-01-26T03:37:55.193Z,102314.47
2023-01-26T03:41:04.608Z,102313.88
2023-01-26T03:43:51.581Z,102315.50
2023-01-26T03:46:37.648Z,102320.81
2023-01-26T03:49:24.842Z,102322.72
2023-01-26T03:52:13.628Z,102320.91
2023-01-26T03:55:00.816Z,102323.06
2023-01-26T03:57:29.640Z,102324.84
2023-01-26T03:59:57.282Z,102314.69
2023-01-26T04:02:46.123Z,102316.59
2023-01-26T04:05:32.322Z,102313.88
2023-01-26T04:08:22.263Z,102315.38
2023-01-26T04:10:51.847Z,102320.47
2023-01-26T04:13:38.706Z,102314.91
2023-01-26T04:16:28.501Z,102329.19
2023-01-26T04:19:14.609Z,102330.25
2023-01-26T04:21:42.197Z,102324.44
2023-01-26T04:24:22.598Z,102334.09
2023-01-26T04:26:56.618Z,102338.78
2023-01-26T04:29:28.389Z,102335.22
2023-01-26T04:31:58.377Z,102338.72
2023-01-26T04:34:26.754Z,102344.25
2023-01-26T04:36:54.724Z,102336.97
2023-01-26T04:39:25.710Z,102337.88
2023-01-26T04:41:56.835Z,102338.03
2023-01-26T04:44:24.545Z,102342.19
2023-01-26T04:46:52.798Z,102338.06
2023-01-26T04:49:21.017Z,102333.78
2023-01-26T04:51:48.976Z,102335.38
2023-01-26T04:54:17.329Z,102338.38
2023-01-26T04:56:46.081Z,102341.22
2023-01-26T04:59:14.664Z,102347.53
2023-01-26T05:01:43.726Z,102345.88
2023-01-26T05:04:12.830Z,102348.53
2023-01-26T05:06:43.360Z,102347.47
2023-01-26T05:09:11.651Z,102348.47
2023-01-26T05:11:41.007Z,102342.94
2023-01-26T05:14:16.134Z,102348.97
2023-01-26T05:17:04.860Z,102349.22
2023-01-26T05:19:51.120Z,102346.28
2023-01-26T05:22:36.547Z,102340.88
2023-01-26T05:25:27.370Z,102340.16
2023-01-26T05:28:08.210Z,102347.28
2023-01-26T05:30:35.956Z,102336.03
2023-01-26T05:33:05.246Z,102339.50
2023-01-26T05:35:33.587Z,102339.44
2023-01-26T05:38:01.389Z,102342.72
2023-01-26T05:40:31.822Z,102340.59
2023-01-26T05:43:04.077Z,102346.91
2023-01-26T05:46:09.989Z,102355.72
2023-01-26T05:48:40.573Z,102355.72
2023-01-26T05:51:08.178Z,102358.66
2023-01-26T05:53:37.317Z,102354.94
2023-01-26T05:56:05.322Z,102345.59
2023-01-26T05:58:35.462Z,102352.13
2023-01-26T06:01:04.940Z,102354.06
2023-01-26T06:03:40.324Z,102352.34
2023-01-26T06:06:08.009Z,102359.28
2023-01-26T06:08:58.425Z,102365.38
2023-01-26T06:11:32.394Z,102362.59
2023-01-26T06:14:22.809Z,102367.84
2023-01-26T06:16:50.700Z,102365.88
2023-01-26T06:19:19.344Z,102367.66
2023-01-26T06:21:53.710Z,102366.44
2023-01-26T06:24:21.619Z,102373.59
2023-01-26T06:26:50.292Z,102365.97
2023-01-26T06:29:19.118Z,102378.97
2023-01-26T06:31:47.289Z,102369.38
2023-01-26T06:34:14.978Z,102365.09
2023-01-26T06:36:43.674Z,102369.09
2023-01-26T06:39:17.844Z,102369.56
2023-01-26T06:41:57.209Z,102363.22
2023-01-26T06:44:24.926Z,102366.59
2023-01-26T06:46:52.730Z,102363.81
2023-01-26T06:49:20.404Z,102359.91
2023-01-26T06:52:05.323Z,102366.38
2023-01-26T06:54:50.102Z,102351.34
2023-01-26T06:57:17.725Z,102347.75
2023-01-26T07:00:06.212Z,102351.06
2023-01-26T07:02:36.635Z,102355.25
2023-01-26T07:05:06.710Z,102355.16
2023-01-26T11:58:24.737Z,102214.41
2023-01-26T12:00:59.616Z,102207.00
2023-01-26T12:03:48.437Z,102201.84
2023-01-26T12:06:20.394Z,102189.91
2023-01-26T12:09:19.171Z,102203.56
2023-01-26T12:12:18.248Z,102194.78
2023-01-26T12:14:47.677Z,102203.03
2023-01-26T12:17:19.009Z,102203.56
2023-01-26T12:20:06.342Z,102211.50
2023-01-26T12:22:39.051Z,102197.97
2023-01-26T12:25:35.598Z,102202.94
2023-01-26T12:28:30.321Z,102187.06
2023-01-26T12:43:15.180Z,102210.63
2023-01-26T12:45:44.444Z,102195.66
2023-01-26T12:48:20.655Z,102190.31
2023-01-26T12:50:51.363Z,102201.69
2023-01-26T12:53:44.120Z,102187.06
2023-01-26T12:56:20.409Z,102189.59
2023-01-26T12:58:48.903Z,102188.59
2023-01-26T13:01:21.431Z,102194.50
2023-01-26T13:04:13.787Z,102190.16
2023-01-26T13:06:42.799Z,102187.94
2023-01-26T13:09:37.676Z,102182.28
2023-01-26T13:12:05.505Z,102188.38
2023-01-26T13:14:38.132Z,102178.28
2023-01-26T13:17:15.144Z,102187.19
2023-01-26T17:00:26.857Z,102076.00
2023-01-26T17:02:54.488Z,102078.78
2023-01-26T17:05:23.139Z,102079.88
2023-01-26T17:07:53.732Z,102076.28
2023-01-26T17:10:22.683Z,102078.06
2023-01-26T17:12:50.534Z,102078.19
2023-01-26T17:15:18.205Z,102082.72
2023-01-26T17:17:45.864Z,102083.59
2023-01-26T17:20:19.387Z,102078.19
2023-01-26T17:22:48.585Z,102077.19
2023-01-26T17:25:17.480Z,102073.44
2023-01-26T17:27:46.554Z,102080.53
2023-01-26T17:30:14.193Z,102077.16
2023-01-26T17:32:42.464Z,102089.72
2023-01-26T17:35:10.380Z,102082.72
2023-01-26T17:37:39.569Z,102077.44
2023-01-26T17:40:08.592Z,102075.75
2023-01-26T17:42:36.516Z,102074.03
2023-01-26T17:45:04.366Z,102082.13
2023-01-26T17:47:35.305Z,102083.31
2023-01-26T17:50:02.890Z,102088.09
2023-01-26T17:52:31.543Z,102092.81
2023-01-26T17:55:05.378Z,102095.56
2023-01-26T17:57:33.962Z,102090.34
2023-01-26T18:00:01.530Z,102089.44
2023-01-26T18:02:39.550Z,102087.69
2023-01-26T18:05:09.034Z,102082.53
2023-01-26T18:07:36.657Z,102087.16
2023-01-26T18:10:04.778Z,102087.38
2023-01-26T18:12:33.333Z,102086.66
2023-01-26T18:15:01.285Z,102084.16
2023-01-26T18:17:28.805Z,102087.06
2023-01-26T18:19:56.354Z,102087.25
2023-01-26T18:22:24.075Z,102094.59
2023-01-26T18:24:52.895Z,102088.44
2023-01-26T18:27:20.392Z,102079.75
2023-01-26T18:29:48.414Z,102085.13
2023-01-26T18:32:16.029Z,102082.56
2023-01-26T18:34:44.264Z,102085.38
2023-01-26T18:37:12.780Z,102082.72
2023-01-26T18:39:40.352Z,102082.66
2023-01-26T18:42:08.174Z,102085.28
2023-01-26T18:44:36.462Z,102087.88
2023-01-26T18:47:04.961Z,102085.19
2023-01-26T18:49:34.957Z,102085.28
2023-01-26T18:52:02.572Z,102080.06
2023-01-26T18:54:31.004Z,102085.47
2023-01-26T18:56:58.628Z,102086.44
2023-01-26T18:59:26.255Z,102077.56
2023-01-26T19:01:55.513Z,102082.94
2023-01-26T19:04:23.077Z,102091.94
2023-01-26T19:06:51.073Z,102087.44
2023-01-26T19:09:18.665Z,102087.44
2023-01-26T19:11:46.300Z,102073.25
2023-01-26T19:14:14.748Z,102073.94
2023-01-26T19:16:47.772Z,102071.28
2023-01-26T19:19:15.482Z,102069.59
2023-01-26T19:21:43.149Z,102069.59
2023-01-26T19:24:11.001Z,102066.25
2023-01-26T19:26:38.831Z,102061.06
2023-01-26T19:29:06.360Z,102052.94
2023-01-26T19:31:35.250Z,102055.59
2023-01-26T19:34:04.986Z,102059.25
2023-01-26T19:36:34.358Z,102074.50
2023-01-26T19:39:04.826Z,102065.88
2023-01-26T19:41:34.674Z,102070.63
2023-01-26T19:44:02.548Z,102078.72
2023-01-26T19:46:30.179Z,102080.63
2023-01-26T19:48:57.857Z,102078.00
2023-01-26T19:51:26.427Z,102070.97
2023-01-26T19:53:58.168Z,102064.72
2023-01-26T19:56:33.487Z,102062.84
2023-01-26T19:59:02.717Z,102059.22
2023-01-26T20:01:33.379Z,102056.56
2023-01-26T20:04:09.305Z,102051.25
2023-01-26T20:06:37.145Z,102052.13
2023-01-26T20:09:06.007Z,102043.34
2023-01-26T20:11:34.272Z,102031.84
2023-01-26T20:14:08.698Z,102029.91
2023-01-26T20:16:37.245Z,102030.75
2023-01-26T20:19:05.160Z,102033.34
2023-01-26T20:21:33.324Z,102035.97
2023-01-26T20:24:05.568Z,102031.41
2023-01-26T20:26:33.882Z,102027.16
2023-01-26T20:29:01.485Z,102034.22
2023-01-26T20:31:29.291Z,102042.13
2023-01-26T20:33:58.592Z,102041.16
2023-01-26T20:36:27.958Z,102027.84
2023-01-26T20:38:56.156Z,102023.41
2023-01-26T20:41:29.947Z,102029.44
2023-01-26T20:44:01.976Z,102026.66
2023-01-26T20:46:42.161Z,102022.28
2023-01-26T20:49:16.154Z,102028.41
2023-01-26T20:51:45.707Z,102020.25
2023-01-26T20:54:16.093Z,102016.44
2023-01-26T20:56:46.013Z,102021.66
2023-01-26T20:59:14.255Z,102019.81
2023-01-26T21:01:42.640Z,102011.84
2023-01-26T21:04:11.083Z,102009.97
2023-01-26T21:06:41.945Z,102019.53
2023-01-26T21:09:12.519Z,102009.72
2023-01-26T21:11:41.986Z,102011.59
2023-01-26T21:14:11.747Z,102012.72
2023-01-26T21:16:40.861Z,102016.53
2023-01-26T21:19:09.069Z,102000.75
2023-01-26T21:21:37.707Z,102006.72
2023-01-26T21:24:07.535Z,102011.94
2023-01-26T21:26:35.892Z,102009.09
2023-01-26T21:29:08.012Z,102008.22
2023-01-26T21:31:36.366Z,102002.16
2023-01-26T21:34:04.967Z,102003.88
2023-01-26T21:36:34.428Z,101991.53
2023-01-26T21:39:04.155Z,101992.41
2023-01-26T21:41:52.146Z,101993.38
2023-01-26T21:44:31.785Z,101992.63
2023-01-26T21:47:01.419Z,101983.88
2023-01-26T21:49:32.057Z,101985.78
2023-01-26T21:52:18.949Z,101986.75
2023-01-26T21:54:48.314Z,101975.41
2023-01-26T21:57:35.231Z,101981.66
2023-01-26T22:00:04.908Z,101978.19
2023-01-26T22:02:36.263Z,101978.19
2023-01-26T22:05:04.254Z,101973.84
2023-01-26T22:07:33.296Z,101979.16
2023-01-26T22:10:02.178Z,101976.56
2023-01-26T22:12:30.778Z,101971.47
2023-01-26T22:14:59.193Z,101966.22
2023-01-26T22:17:27.703Z,101963.72
2023-01-26T22:19:57.191Z,101966.31
2023-01-26T22:22:25.206Z,101962.84
2023-01-26T22:24:53.771Z,101960.81
2023-01-26T22:27:23.665Z,101959.88
2023-01-26T22:29:51.517Z,101959.03
2023-01-26T22:32:19.667Z,101961.69
2023-01-26T22:34:47.812Z,101956.47
2023-01-26T22:37:15.926Z,101965.19
2023-01-26T22:39:44.306Z,101964.47
2023-01-26T22:42:12.977Z,101964.47
2023-01-26T22:44:42.803Z,101951.25
2023-01-26T22:47:10.664Z,101964.47
2023-01-26T22:49:39.872Z,101956.66
2023-01-26T22:52:07.884Z,101959.16
2023-01-26T22:54:42.392Z,101961.78
2023-01-26T22:57:11.765Z,101964.59
2023-01-26T22:59:40.107Z,101963.50
2023-01-26T23:02:08.017Z,101966.28
2023-01-26T23:04:36.699Z,101959.31
2023-01-26T23:07:04.555Z,101963.91
2023-01-26T23:09:32.952Z,101952.44
2023-01-26T23:12:01.998Z,101936.38
2023-01-26T23:14:30.960Z,101939.00
2023-01-26T23:16:59.847Z,101940.03
2023-01-26T23:19:27.814Z,101928.66
2023-01-26T23:21:55.952Z,101928.84
2023-01-26T23:24:24.741Z,101926.13
2023-01-26T23:26:53.046Z,101930.88
2023-01-26T23:29:20.878Z,101936.19
2023-01-26T23:31:48.888Z,101934.47
2023-01-26T23:34:17.348Z,101935.47
2023-01-26T23:36:46.660Z,101932.91
2023-01-26T23:39:14.440Z,101940.78
2023-01-26T23:41:42.670Z,101931.16
2023-01-26T23:44:13.483Z,101932.13
2023-01-26T23:46:42.113Z,101932.94
2023-01-26T23:49:11.264Z,101937.34
2023-01-26T23:51:39.645Z,101934.88
2023-01-26T23:54:09.127Z,101927.78
2023-01-26T23:56:37.027Z,101930.59
2023-01-26T23:59:05.534Z,101935.13
